Time;durP1;ratioP1;P1;durP2;ratioP2;P2;SDS_P1;SDS_P2;PMS_P1;PMS_P2;Temp;Humidity;BMP_temperature;BMP_pressure;BME280_temperature;BME280_humidity;BME280_pressure;Samples;Min_cycle;Max_cycle;Signal;HPM_P1;HPM_P2
2021/05/31 00:00:26;;;;;;;2.53;1.70;;;12.30;56.30;;;;;;5134233;27;20590;-78
2021/05/31 00:02:52;;;;;;;1.40;1.30;;;12.30;56.40;;;;;;5134292;27;20448;-78
2021/05/31 00:05:22;;;;;;;1.80;1.70;;;12.30;56.30;;;;;;5135655;27;20791;-81
2021/05/31 00:07:48;;;;;;;2.40;1.50;;;12.20;56.40;;;;;;5137946;27;20913;-81
2021/05/31 00:10:16;;;;;;;1.87;1.73;;;12.20;56.50;;;;;;5138046;27;20538;-80
2021/05/31 00:12:42;;;;;;;1.57;1.47;;;12.20;56.40;;;;;;5138164;27;20445;-80
2021/05/31 00:15:09;;;;;;;3.30;1.80;;;12.20;56.60;;;;;;5138071;27;20449;-80
2021/05/31 00:17:36;;;;;;;1.40;1.30;;;12.20;56.60;;;;;;5138039;27;20459;-79
2021/05/31 00:20:05;;;;;;;1.70;1.60;;;12.10;56.70;;;;;;5137606;27;20454;-79
2021/05/31 00:22:31;;;;;;;1.83;1.73;;;12.10;56.90;;;;;;5137877;27;20833;-79
2021/05/31 00:24:58;;;;;;;1.80;1.70;;;12.00;57.00;;;;;;5137809;27;20438;-79
2021/05/31 00:27:25;;;;;;;1.60;1.50;;;12.10;56.90;;;;;;5137385;27;20485;-79
2021/05/31 00:29:51;;;;;;;1.90;1.80;;;12.00;57.10;;;;;;5137580;27;20816;-79
2021/05/31 00:32:18;;;;;;;2.17;1.97;;;11.90;57.30;;;;;;5137394;27;20976;-79
2021/05/31 00:34:45;;;;;;;3.80;2.20;;;11.80;57.40;;;;;;5137633;27;20442;-79
2021/05/31 00:37:11;;;;;;;1.53;1.43;;;11.70;57.90;;;;;;5137293;27;20941;-79
2021/05/31 00:39:37;;;;;;;1.60;1.50;;;11.80;58.00;;;;;;5137535;27;20442;-79
2021/05/31 00:42:04;;;;;;;1.70;1.47;;;11.70;58.00;;;;;;5137516;27;20458;-80
2021/05/31 00:44:32;;;;;;;2.60;2.40;;;11.70;58.00;;;;;;5137503;27;20438;-78
2021/05/31 00:46:58;;;;;;;2.60;1.60;;;11.70;58.30;;;;;;5137427;27;20446;-78
2021/05/31 00:49:28;;;;;;;1.87;1.70;;;11.70;58.30;;;;;;5136921;27;20487;-79
2021/05/31 00:51:55;;;;;;;1.43;1.33;;;11.60;58.60;;;;;;5137275;27;20590;-80
2021/05/31 00:54:23;;;;;;;1.80;1.57;;;11.60;58.20;;;;;;5137249;27;20445;-80
2021/05/31 00:56:50;;;;;;;2.43;2.30;;;11.60;58.40;;;;;;5137185;27;20498;-81
2021/05/31 00:59:17;;;;;;;3.87;1.90;;;11.50;58.90;;;;;;5136837;27;20780;-80
2021/05/31 01:01:44;;;;;;;1.90;1.80;;;11.50;59.60;;;;;;5137046;27;20466;-78
2021/05/31 01:04:10;;;;;;;2.20;2.00;;;11.40;60.50;;;;;;5137001;27;20450;-78
2021/05/31 01:06:41;;;;;;;1.60;1.50;;;11.40;61.00;;;;;;5137118;27;20446;-78
2021/05/31 01:09:09;;;;;;;1.60;1.50;;;11.30;61.50;;;;;;5137014;27;20473;-80
2021/05/31 01:11:49;;;;;;;2.30;1.80;;;11.30;60.60;;;;;;5136891;27;20477;-80
2021/05/31 01:14:22;;;;;;;1.87;1.77;;;11.30;62.00;;;;;;5136958;27;20479;-80
2021/05/31 01:16:55;;;;;;;1.67;1.47;;;11.20;61.10;;;;;;5136234;27;20426;-80
2021/05/31 01:19:41;;;;;;;3.17;2.07;;;11.10;62.00;;;;;;5136445;27;20825;-80
2021/05/31 01:22:10;;;;;;;3.37;1.67;;;11.10;62.60;;;;;;5136866;27;20431;-78
2021/05/31 01:24:54;;;;;;;1.90;1.80;;;11.00;62.00;;;;;;5136786;27;20460;-78
2021/05/31 01:27:33;;;;;;;4.03;1.40;;;11.10;61.50;;;;;;5136265;27;20474;-78
2021/05/31 01:30:04;;;;;;;1.53;1.43;;;11.00;61.50;;;;;;5136459;27;20466;-78
2021/05/31 01:32:34;;;;;;;3.37;1.70;;;11.00;61.90;;;;;;5136564;27;20435;-78
2021/05/31 01:35:03;;;;;;;4.20;1.70;;;11.00;61.00;;;;;;5136291;27;20807;-79
2021/05/31 01:37:30;;;;;;;2.20;1.70;;;10.90;61.80;;;;;;5136407;27;20449;-78
2021/05/31 01:40:03;;;;;;;2.57;2.00;;;10.90;61.80;;;;;;5136305;27;20446;-79
2021/05/31 01:42:30;;;;;;;4.57;1.80;;;10.90;61.30;;;;;;5136507;27;20484;-78
2021/05/31 01:44:57;;;;;;;2.57;1.90;;;10.90;62.60;;;;;;5136388;27;20520;-78
2021/05/31 01:47:26;;;;;;;2.50;1.90;;;10.90;62.70;;;;;;5136304;27;20442;-80
2021/05/31 01:49:53;;;;;;;2.10;1.60;;;10.80;62.30;;;;;;5136033;27;20546;-80
2021/05/31 01:52:22;;;;;;;1.63;1.47;;;10.80;62.40;;;;;;5136160;27;20468;-80
2021/05/31 01:54:52;;;;;;;1.97;1.47;;;10.70;63.40;;;;;;5136053;27;20466;-81
2021/05/31 01:57:19;;;;;;;1.83;1.73;;;10.80;64.00;;;;;;5136050;27;20495;-82
2021/05/31 01:59:46;;;;;;;2.63;2.03;;;10.70;63.10;;;;;;5135592;27;20937;-80
2021/05/31 02:02:12;;;;;;;2.07;1.83;;;10.70;63.50;;;;;;5135681;27;20446;-79
2021/05/31 02:04:40;;;;;;;1.80;1.70;;;10.60;62.90;;;;;;5135929;27;20457;-78
2021/05/31 02:07:06;;;;;;;2.37;1.87;;;10.60;64.20;;;;;;5135865;27;20453;-78
2021/05/31 02:09:32;;;;;;;2.83;1.90;;;10.60;63.90;;;;;;5135671;27;20454;-78
2021/05/31 02:12:07;;;;;;;1.50;1.40;;;10.50;64.50;;;;;;5135764;27;20519;-79
2021/05/31 02:14:42;;;;;;;7.40;2.03;;;10.50;65.00;;;;;;5135830;27;20429;-79
2021/05/31 02:17:13;;;;;;;2.10;2.00;;;10.50;64.20;;;;;;5135778;27;20426;-79
2021/05/31 02:19:42;;;;;;;3.00;1.90;;;10.50;64.00;;;;;;5135696;27;20441;-80
2021/05/31 02:22:09;;;;;;;2.53;2.07;;;10.50;64.70;;;;;;5135561;27;20446;-80
2021/05/31 02:24:36;;;;;;;2.80;1.87;;;10.40;64.00;;;;;;5135236;27;20982;-79
2021/05/31 02:27:03;;;;;;;1.90;1.67;;;10.50;63.70;;;;;;5135266;27;20474;-78
2021/05/31 02:29:30;;;;;;;3.20;2.30;;;10.50;64.10;;;;;;5134433;27;20445;-79
2021/05/31 02:31:57;;;;;;;2.57;1.63;;;10.40;63.80;;;;;;5135322;27;20466;-79
2021/05/31 02:34:23;;;;;;;2.23;2.03;;;10.30;63.90;;;;;;5135263;27;20446;-79
2021/05/31 02:36:53;;;;;;;2.63;1.90;;;10.20;64.20;;;;;;5135803;27;20438;-80
2021/05/31 02:39:20;;;;;;;2.77;1.53;;;10.30;65.50;;;;;;5135786;27;20482;-80
2021/05/31 02:41:46;;;;;;;5.43;1.90;;;10.20;65.80;;;;;;5135121;27;20462;-80
2021/05/31 02:44:13;;;;;;;2.90;1.87;;;10.20;65.90;;;;;;5134879;27;20956;-80
2021/05/31 02:46:39;;;;;;;2.03;1.50;;;10.20;65.90;;;;;;5135123;27;20461;-80
2021/05/31 02:49:07;;;;;;;3.80;2.10;;;10.20;66.60;;;;;;5135124;27;20495;-80
2021/05/31 02:51:33;;;;;;;2.80;1.90;;;10.10;66.70;;;;;;5134961;27;20896;-79
2021/05/31 02:54:02;;;;;;;2.33;2.00;;;10.20;65.40;;;;;;5134969;27;20469;-79
2021/05/31 02:56:28;;;;;;;1.77;1.43;;;10.20;64.80;;;;;;5134670;27;20972;-79
2021/05/31 02:58:54;;;;;;;2.53;2.07;;;10.30;64.70;;;;;;5134966;27;20468;-79
2021/05/31 03:01:20;;;;;;;1.53;1.43;;;10.30;64.80;;;;;;5134831;27;20458;-79
2021/05/31 03:03:46;;;;;;;3.10;1.97;;;10.30;65.20;;;;;;5134851;27;20449;-79
2021/05/31 03:06:12;;;;;;;3.93;1.57;;;10.20;65.00;;;;;;5134810;27;20522;-79
2021/05/31 03:08:39;;;;;;;1.97;1.87;;;10.20;66.00;;;;;;5134465;27;20922;-78
2021/05/31 03:11:06;;;;;;;2.37;2.07;;;10.10;66.80;;;;;;5134549;27;20486;-79
2021/05/31 03:13:33;;;;;;;2.80;2.10;;;10.10;67.00;;;;;;5134374;27;20938;-79
2021/05/31 03:15:59;;;;;;;2.23;1.83;;;10.00;67.50;;;;;;5134603;27;20460;-79
2021/05/31 03:18:25;;;;;;;1.97;1.73;;;10.00;68.50;;;;;;5134643;27;20437;-79
2021/05/31 03:20:51;;;;;;;2.60;2.33;;;10.00;67.70;;;;;;5134571;27;20514;-79
2021/05/31 03:23:18;;;;;;;2.20;2.00;;;9.90;68.00;;;;;;5134283;27;20959;-79
2021/05/31 03:25:44;;;;;;;2.43;1.93;;;9.90;68.00;;;;;;5134562;27;20537;-80
2021/05/31 03:28:12;;;;;;;3.25;2.15;;;9.90;68.00;;;;;;5134163;27;20478;-80
2021/05/31 03:30:38;;;;;;;1.70;1.60;;;9.80;68.00;;;;;;5134354;27;20482;-80
2021/05/31 03:33:05;;;;;;;3.07;1.83;;;9.80;68.10;;;;;;5134443;27;20470;-80
2021/05/31 03:35:31;;;;;;;1.87;1.77;;;9.90;68.70;;;;;;5134451;27;20450;-80
2021/05/31 03:37:58;;;;;;;2.70;1.70;;;9.90;68.30;;;;;;5134470;27;20457;-78
2021/05/31 03:40:25;;;;;;;1.70;1.60;;;9.90;68.70;;;;;;5134039;27;20454;-80
2021/05/31 03:42:52;;;;;;;3.13;1.87;;;9.90;68.70;;;;;;5134407;27;20874;-80
2021/05/31 03:45:20;;;;;;;2.00;1.90;;;10.10;67.40;;;;;;5134494;27;20780;-80
2021/05/31 03:47:46;;;;;;;3.37;2.00;;;10.20;67.00;;;;;;5134105;27;20446;-79
2021/05/31 03:50:13;;;;;;;1.60;1.50;;;10.10;66.80;;;;;;5133849;27;20482;-79
2021/05/31 03:52:39;;;;;;;1.60;1.43;;;10.10;67.30;;;;;;5133999;27;20438;-77
2021/05/31 03:55:08;;;;;;;2.90;2.00;;;10.10;67.20;;;;;;5134247;27;20442;-78
2021/05/31 03:57:36;;;;;;;1.60;1.50;;;10.10;67.30;;;;;;5134243;27;20806;-77
2021/05/31 04:00:02;;;;;;;2.90;1.50;;;10.10;67.50;;;;;;5134112;27;20530;-79
2021/05/31 04:02:30;;;;;;;6.87;1.97;;;10.20;67.60;;;;;;5134249;27;20446;-80
2021/05/31 04:04:57;;;;;;;2.50;2.30;;;10.30;67.70;;;;;;5134185;27;20453;-80
2021/05/31 04:12:56;;;;;;;2.30;1.73;;;10.30;67.50;;;;;;5134188;28;20408;-80
2021/05/31 04:15:22;;;;;;;3.00;1.60;;;10.30;67.90;;;;;;5133807;27;20430;-80
2021/05/31 04:17:50;;;;;;;2.00;1.90;;;10.20;68.20;;;;;;5133773;27;20434;-80
2021/05/31 04:20:16;;;;;;;3.37;2.17;;;10.30;68.60;;;;;;5133894;27;20489;-80
2021/05/31 04:22:43;;;;;;;2.97;2.07;;;10.30;68.30;;;;;;5134037;27;20449;-79
2021/05/31 04:25:10;;;;;;;2.10;1.90;;;10.30;68.40;;;;;;5133652;27;20446;-78
2021/05/31 04:27:36;;;;;;;4.53;1.70;;;10.30;68.70;;;;;;5133534;27;20486;-78
2021/05/31 04:30:03;;;;;;;2.20;2.00;;;10.30;69.30;;;;;;5133880;27;20462;-78
2021/05/31 04:32:30;;;;;;;2.17;1.90;;;10.30;69.20;;;;;;5133594;27;20449;-78
2021/05/31 04:34:57;;;;;;;2.10;2.00;;;10.40;69.60;;;;;;5133615;27;20998;-77
2021/05/31 04:37:25;;;;;;;2.40;1.93;;;10.40;70.00;;;;;;5133887;27;20445;-77
2021/05/31 04:39:52;;;;;;;2.50;2.30;;;10.40;69.60;;;;;;5133607;27;20480;-79
2021/05/31 04:42:18;;;;;;;1.73;1.63;;;10.40;70.40;;;;;;5133873;27;20446;-77
2021/05/31 04:44:44;;;;;;;2.07;1.87;;;10.40;69.50;;;;;;5133769;27;20446;-78
2021/05/31 04:47:11;;;;;;;2.33;2.10;;;10.50;70.10;;;;;;5133758;27;20446;-78
2021/05/31 04:49:37;;;;;;;2.97;1.93;;;10.60;70.10;;;;;;5133756;27;20446;-78
2021/05/31 04:52:05;;;;;;;4.93;1.90;;;10.70;69.50;;;;;;5134711;27;20458;-78
2021/05/31 04:54:32;;;;;;;1.80;1.70;;;10.80;69.50;;;;;;5137358;27;20499;-78
2021/05/31 04:56:58;;;;;;;1.87;1.70;;;10.80;70.00;;;;;;5137323;27;20538;-78
2021/05/31 04:59:24;;;;;;;2.30;2.20;;;10.80;70.30;;;;;;5137309;27;20443;-78
2021/05/31 05:01:50;;;;;;;1.93;1.73;;;10.90;69.70;;;;;;5137080;27;20489;-78
2021/05/31 05:04:17;;;;;;;2.10;2.00;;;11.00;70.10;;;;;;5136902;27;20454;-78
2021/05/31 05:06:43;;;;;;;2.63;2.43;;;11.00;69.80;;;;;;5137102;27;20445;-78
2021/05/31 05:09:11;;;;;;;2.47;2.27;;;11.20;69.80;;;;;;5137035;27;20485;-78
2021/05/31 05:11:37;;;;;;;2.50;2.30;;;11.30;69.50;;;;;;5136979;27;20871;-78
2021/05/31 05:14:03;;;;;;;2.80;2.00;;;11.40;69.30;;;;;;5136731;27;20446;-78
2021/05/31 05:16:30;;;;;;;3.30;2.60;;;11.40;69.30;;;;;;5136647;27;20467;-78
2021/05/31 05:18:56;;;;;;;2.20;2.00;;;11.50;69.60;;;;;;5136961;27;20537;-80
2021/05/31 05:21:22;;;;;;;3.17;2.27;;;11.60;69.90;;;;;;5136736;27;20486;-79
2021/05/31 05:23:49;;;;;;;2.40;2.20;;;11.70;68.60;;;;;;5136877;27;20438;-80
2021/05/31 05:26:18;;;;;;;2.57;2.37;;;11.80;69.70;;;;;;5136432;27;20458;-79
2021/05/31 05:28:45;;;;;;;4.30;2.20;;;12.00;69.10;;;;;;5136274;27;20509;-80
2021/05/31 05:31:11;;;;;;;2.70;2.20;;;12.00;69.30;;;;;;5136664;27;20458;-79
2021/05/31 05:33:42;;;;;;;4.13;2.40;;;12.20;68.40;;;;;;5136434;27;20929;-79
2021/05/31 05:36:16;;;;;;;3.13;2.03;;;12.40;67.90;;;;;;5136347;27;20427;-78
2021/05/31 05:39:06;;;;;;;3.27;2.30;;;12.50;67.70;;;;;;5136633;27;20440;-78
2021/05/31 05:41:40;;;;;;;2.70;2.50;;;12.60;68.30;;;;;;5136201;27;21073;-78
2021/05/31 05:44:38;;;;;;;3.73;2.60;;;12.80;67.50;;;;;;5136532;27;20487;-78
2021/05/31 05:49:44;;;;;;;3.53;3.17;;;13.00;68.10;;;;;;5126969;27;20430;-79
2021/05/31 05:52:11;;;;;;;3.50;2.97;;;13.30;67.20;;;;;;5136257;27;20441;-79
2021/05/31 05:54:38;;;;;;;3.80;2.90;;;13.50;65.90;;;;;;5136208;27;20442;-78
2021/05/31 05:57:06;;;;;;;3.13;2.67;;;13.70;66.50;;;;;;5136218;27;20778;-77
2021/05/31 05:59:33;;;;;;;3.03;2.57;;;13.90;65.80;;;;;;5136112;27;20445;-78
2021/05/31 06:02:00;;;;;;;2.83;2.53;;;14.10;64.90;;;;;;5135930;27;20542;-77
2021/05/31 06:04:26;;;;;;;3.10;2.87;;;14.40;64.60;;;;;;5135575;27;20945;-78
2021/05/31 06:06:53;;;;;;;3.67;3.10;;;14.50;64.00;;;;;;5135639;27;20955;-77
2021/05/31 06:09:20;;;;;;;3.17;2.70;;;14.70;63.20;;;;;;5135835;27;20450;-78
2021/05/31 06:11:47;;;;;;;3.00;2.70;;;15.00;63.00;;;;;;5135422;27;20973;-79
2021/05/31 06:14:14;;;;;;;3.47;2.50;;;15.50;62.10;;;;;;5135803;27;20438;-81
2021/05/31 06:16:41;;;;;;;2.20;2.10;;;15.80;62.50;;;;;;5135738;27;20446;-79
2021/05/31 06:19:07;;;;;;;2.53;2.33;;;16.20;60.30;;;;;;5135696;27;20442;-80
2021/05/31 06:21:33;;;;;;;2.50;2.40;;;16.50;60.50;;;;;;5135494;27;20544;-80
2021/05/31 06:24:00;;;;;;;2.80;2.60;;;17.20;58.70;;;;;;5135725;27;20457;-79
2021/05/31 06:26:26;;;;;;;2.80;2.60;;;17.90;56.70;;;;;;5135704;27;20450;-79
2021/05/31 06:28:52;;;;;;;2.50;2.40;;;18.50;55.40;;;;;;5135568;27;20437;-79
2021/05/31 06:31:20;;;;;;;2.70;2.50;;;19.10;54.80;;;;;;5135456;27;20454;-78
2021/05/31 06:33:46;;;;;;;2.77;2.57;;;20.00;53.20;;;;;;5135608;27;20472;-78
2021/05/31 06:36:13;;;;;;;2.67;2.28;;;20.60;51.30;;;;;;5135379;27;20200;-79
2021/05/31 06:38:39;;;;;;;2.45;2.35;;;21.00;51.40;;;;;;5135516;27;20207;-79
2021/05/31 06:41:05;;;;;;;2.30;2.20;;;21.60;50.00;;;;;;5135587;27;20223;-79
2021/05/31 06:43:32;;;;;;;2.03;1.92;;;22.20;49.50;;;;;;5135433;27;20222;-80
2021/05/31 06:46:00;;;;;;;2.45;2.10;;;22.30;49.10;;;;;;5135242;27;20673;-80
2021/05/31 06:48:28;;;;;;;2.33;2.17;;;22.70;48.10;;;;;;5134842;27;20205;-78
2021/05/31 06:50:54;;;;;;;2.47;2.38;;;23.20;47.20;;;;;;5134998;27;20241;-78
2021/05/31 06:53:21;;;;;;;2.40;2.20;;;23.90;45.60;;;;;;5134735;27;20207;-78
2021/05/31 06:55:47;;;;;;;1.98;1.88;;;24.20;44.80;;;;;;5135093;27;20192;-78
2021/05/31 06:58:13;;;;;;;1.77;1.67;;;24.50;42.80;;;;;;5134735;27;20193;-80
2021/05/31 07:00:40;;;;;;;2.55;1.60;;;24.60;42.60;;;;;;5134853;27;20299;-80
2021/05/31 07:03:08;;;;;;;2.08;1.60;;;24.80;43.30;;;;;;5134945;27;20192;-84
2021/05/31 07:05:36;;;;;;;1.75;1.65;;;25.30;42.70;;;;;;5135037;27;20221;-79
2021/05/31 07:08:03;;;;;;;2.25;2.05;;;25.90;40.80;;;;;;5134937;27;20233;-82
2021/05/31 07:10:30;;;;;;;1.92;1.83;;;26.00;40.50;;;;;;5135728;27;20782;-81
2021/05/31 07:12:56;;;;;;;2.35;2.17;;;26.90;39.70;;;;;;5135101;27;20197;-81
2021/05/31 07:15:24;;;;;;;2.10;1.90;;;27.60;37.20;;;;;;5134134;27;20204;-79
2021/05/31 07:17:51;;;;;;;2.10;2.00;;;28.10;36.30;;;;;;5135466;27;20235;-79
2021/05/31 07:20:19;;;;;;;2.20;1.67;;;28.50;35.70;;;;;;5134917;27;20227;-81
2021/05/31 07:22:47;;;;;;;1.38;1.27;;;28.90;35.00;;;;;;5134305;27;20571;-81
2021/05/31 07:25:15;;;;;;;1.88;1.70;;;28.90;34.20;;;;;;5134570;27;20227;-79
2021/05/31 07:27:42;;;;;;;2.00;1.90;;;29.10;33.70;;;;;;5134083;27;20581;-81
2021/05/31 07:30:09;;;;;;;2.13;2.03;;;29.30;33.50;;;;;;5135588;27;20246;-81
2021/05/31 07:32:36;;;;;;;1.67;1.58;;;29.80;32.90;;;;;;5134514;27;20201;-79
2021/05/31 07:35:03;;;;;;;1.80;1.70;;;30.70;32.30;;;;;;5134975;27;20200;-82
2021/05/31 07:37:30;;;;;;;1.75;1.65;;;31.50;30.70;;;;;;5135118;27;20215;-84
2021/05/31 07:39:57;;;;;;;1.67;1.58;;;31.60;30.00;;;;;;5134556;27;20614;-83
2021/05/31 07:42:23;;;;;;;1.58;1.48;;;31.90;29.60;;;;;;5134754;27;20196;-82
2021/05/31 07:44:49;;;;;;;1.50;1.40;;;32.30;29.10;;;;;;5134591;27;20654;-80
2021/05/31 07:47:16;;;;;;;3.90;1.40;;;32.40;28.10;;;;;;5134342;27;20196;-80
2021/05/31 07:49:42;;;;;;;1.55;1.40;;;32.50;28.40;;;;;;5134434;27;20667;-81
2021/05/31 07:52:18;;;;;;;2.72;1.65;;;32.90;28.10;;;;;;5134498;27;20229;-80
2021/05/31 07:54:44;;;;;;;2.17;2.08;;;32.90;28.00;;;;;;5134322;27;20184;-80
2021/05/31 07:57:12;;;;;;;1.67;1.58;;;32.60;28.10;;;;;;5134250;27;20210;-79
2021/05/31 07:59:38;;;;;;;1.95;1.35;;;32.80;28.00;;;;;;5134261;27;20199;-81
2021/05/31 08:02:04;;;;;;;1.42;1.33;;;33.00;27.80;;;;;;5134212;27;20219;-82
2021/05/31 08:04:30;;;;;;;2.13;1.50;;;33.20;27.70;;;;;;5133967;27;20694;-81
2021/05/31 08:06:59;;;;;;;1.30;1.20;;;33.60;28.00;;;;;;5135601;27;20203;-80
2021/05/31 08:09:26;;;;;;;1.90;1.75;;;34.00;27.30;;;;;;5136518;27;20255;-80
2021/05/31 08:11:52;;;;;;;1.45;1.38;;;34.60;26.40;;;;;;5134311;27;20228;-80
2021/05/31 08:14:20;;;;;;;1.70;1.70;;;34.90;25.70;;;;;;5135414;27;20200;-79
2021/05/31 08:16:48;;;;;;;1.83;1.73;;;34.70;26.20;;;;;;5135104;27;20226;-80
2021/05/31 08:19:15;;;;;;;1.80;1.70;;;34.30;26.30;;;;;;5134248;27;20672;-80
2021/05/31 08:21:42;;;;;;;1.60;1.50;;;33.90;26.50;;;;;;5134165;27;20712;-80
2021/05/31 08:24:08;;;;;;;1.60;1.60;;;33.50;25.90;;;;;;5135563;27;20200;-84
2021/05/31 08:26:36;;;;;;;2.42;2.33;;;33.60;26.10;;;;;;5134004;27;20198;-82
2021/05/31 08:29:02;;;;;;;1.52;1.42;;;33.50;26.60;;;;;;5137756;27;20196;-83
2021/05/31 08:31:30;;;;;;;1.88;1.77;;;33.50;26.80;;;;;;5137744;27;20232;-83
2021/05/31 08:33:56;;;;;;;2.00;1.83;;;33.60;27.30;;;;;;5137818;27;20205;-82
2021/05/31 08:36:23;;;;;;;1.60;1.50;;;33.80;27.60;;;;;;5137816;27;20197;-83
2021/05/31 08:38:50;;;;;;;1.50;1.50;;;33.80;26.30;;;;;;5137724;27;20196;-81
2021/05/31 08:41:17;;;;;;;1.80;1.50;;;33.30;27.30;;;;;;5137787;27;20230;-80
2021/05/31 08:43:43;;;;;;;1.90;1.80;;;32.70;27.10;;;;;;5137860;27;20220;-79
2021/05/31 08:46:10;;;;;;;1.70;1.60;;;31.90;28.10;;;;;;5137536;27;20660;-80
2021/05/31 08:48:37;;;;;;;1.90;1.80;;;31.40;28.10;;;;;;5137548;27;20553;-80
2021/05/31 08:51:04;;;;;;;1.92;1.60;;;30.80;27.60;;;;;;5137631;27;20281;-79
2021/05/31 08:53:30;;;;;;;1.48;1.23;;;29.90;27.90;;;;;;5137684;27;20197;-79
2021/05/31 08:55:56;;;;;;;1.50;1.40;;;29.40;28.50;;;;;;5137263;27;20187;-80
2021/05/31 08:58:22;;;;;;;1.67;1.58;;;28.50;28.40;;;;;;5137300;27;20521;-79
2021/05/31 09:00:49;;;;;;;1.40;1.30;;;27.30;29.20;;;;;;5137542;27;20220;-79
2021/05/31 09:03:18;;;;;;;1.80;1.70;;;26.50;30.50;;;;;;5137511;27;20184;-80
2021/05/31 09:05:49;;;;;;;2.20;2.10;;;25.70;31.20;;;;;;5137487;27;20188;-79
2021/05/31 09:08:16;;;;;;;1.38;1.27;;;25.00;32.00;;;;;;5137124;27;20215;-79
2021/05/31 09:10:45;;;;;;;3.33;1.77;;;24.50;32.10;;;;;;5137169;27;20292;-79
2021/05/31 09:13:13;;;;;;;1.58;1.48;;;23.90;31.80;;;;;;5137183;27;20241;-80
2021/05/31 09:15:44;;;;;;;2.00;1.30;;;23.60;32.70;;;;;;5136791;27;20529;-79
2021/05/31 09:18:11;;;;;;;1.43;1.33;;;23.40;33.60;;;;;;5137178;27;20185;-79
2021/05/31 09:20:37;;;;;;;3.17;1.77;;;23.40;33.00;;;;;;5137038;27;20212;-80
2021/05/31 09:23:05;;;;;;;2.10;2.00;;;23.20;32.90;;;;;;5136744;27;20656;-80
2021/05/31 09:25:33;;;;;;;1.63;1.53;;;23.10;34.40;;;;;;5136971;27;20184;-80
2021/05/31 09:28:02;;;;;;;1.43;1.33;;;23.00;34.10;;;;;;5136565;27;20472;-80
2021/05/31 09:30:37;;;;;;;1.33;1.33;;;23.00;35.10;;;;;;5137097;27;20450;-80
2021/05/31 09:33:04;;;;;;;1.40;1.40;;;22.90;35.10;;;;;;5136982;27;20433;-81
2021/05/31 09:35:30;;;;;;;1.43;1.33;;;23.00;34.50;;;;;;5136989;27;20426;-81
2021/05/31 09:38:01;;;;;;;1.70;1.60;;;23.00;34.50;;;;;;5136621;27;20430;-81
2021/05/31 09:40:29;;;;;;;3.10;1.60;;;23.10;34.80;;;;;;5136795;27;20530;-80
2021/05/31 09:42:57;;;;;;;1.70;1.60;;;23.00;34.90;;;;;;5136843;27;20422;-80
2021/05/31 09:45:24;;;;;;;1.90;1.80;;;22.80;35.30;;;;;;5136911;27;20434;-80
2021/05/31 09:47:50;;;;;;;2.17;1.80;;;22.60;36.80;;;;;;5136639;27;20521;-80
2021/05/31 09:50:25;;;;;;;1.80;1.70;;;22.40;35.80;;;;;;5136490;27;20522;-81
2021/05/31 09:53:03;;;;;;;1.83;1.73;;;22.30;36.80;;;;;;5136709;27;20430;-80
2021/05/31 09:55:33;;;;;;;2.43;2.23;;;21.90;36.20;;;;;;5136054;27;20905;-80
2021/05/31 09:58:00;;;;;;;2.17;1.97;;;21.60;37.20;;;;;;5136749;27;20897;-81
2021/05/31 10:00:30;;;;;;;1.63;1.53;;;21.60;38.50;;;;;;5136385;27;20474;-79
2021/05/31 10:03:00;;;;;;;2.20;1.70;;;21.60;39.40;;;;;;5136715;27;20438;-80
2021/05/31 10:05:34;;;;;;;1.67;1.53;;;21.80;38.60;;;;;;5136544;27;20434;-81
2021/05/31 10:08:04;;;;;;;1.60;1.50;;;22.00;38.10;;;;;;5137725;27;20473;-80
2021/05/31 10:10:33;;;;;;;1.53;1.43;;;22.20;38.50;;;;;;5136847;27;20838;-80
2021/05/31 10:13:00;;;;;;;1.53;1.43;;;22.40;38.50;;;;;;5136675;27;20434;-81
2021/05/31 10:15:28;;;;;;;2.40;1.90;;;22.80;38.10;;;;;;5136232;27;20494;-80
2021/05/31 10:17:55;;;;;;;1.93;1.77;;;22.80;37.40;;;;;;5136609;27;20774;-81
2021/05/31 10:20:22;;;;;;;1.50;1.40;;;22.90;37.80;;;;;;5136720;27;20469;-81
2021/05/31 10:22:49;;;;;;;1.67;1.57;;;22.70;36.40;;;;;;5136512;27;20430;-80
2021/05/31 10:25:17;;;;;;;2.40;2.10;;;22.60;38.20;;;;;;5136037;27;20419;-80
2021/05/31 10:27:47;;;;;;;2.23;2.03;;;22.50;38.00;;;;;;5135981;27;20480;-80
2021/05/31 10:30:15;;;;;;;1.63;1.60;;;22.30;37.50;;;;;;5136197;27;20474;-80
2021/05/31 10:32:43;;;;;;;1.70;1.60;;;22.20;39.10;;;;;;5135541;27;20510;-80
2021/05/31 10:35:19;;;;;;;1.77;1.67;;;22.20;38.70;;;;;;5135518;27;20775;-81
2021/05/31 10:37:53;;;;;;;1.73;1.63;;;22.20;38.50;;;;;;5135831;27;20449;-81
2021/05/31 10:40:20;;;;;;;3.57;2.00;;;22.10;37.20;;;;;;5135259;27;21033;-80
2021/05/31 10:42:49;;;;;;;1.70;1.60;;;22.00;37.50;;;;;;5135602;27;20913;-80
2021/05/31 10:45:30;;;;;;;1.13;1.13;;;22.00;39.00;;;;;;5136304;27;20430;-80
2021/05/31 10:48:04;;;;;;;1.80;1.70;;;22.00;38.60;;;;;;5135866;27;20513;-80
2021/05/31 10:50:37;;;;;;;2.17;1.97;;;22.10;38.40;;;;;;5134263;27;20491;-80
2021/05/31 10:53:06;;;;;;;1.80;1.70;;;22.10;36.70;;;;;;5135505;27;20426;-80
2021/05/31 10:55:33;;;;;;;1.90;1.80;;;22.00;36.60;;;;;;5135322;27;20431;-80
2021/05/31 10:58:01;;;;;;;3.70;1.93;;;21.70;36.10;;;;;;5134850;27;20558;-80
2021/05/31 11:00:29;;;;;;;1.77;1.67;;;21.70;37.80;;;;;;5135125;27;20466;-79
2021/05/31 11:03:10;;;;;;;1.87;1.77;;;21.70;38.10;;;;;;5135002;27;20913;-79
2021/05/31 11:05:36;;;;;;;2.17;1.70;;;22.00;36.00;;;;;;5135308;27;20726;-80
2021/05/31 11:08:07;;;;;;;1.50;1.40;;;21.90;35.70;;;;;;5135808;27;20442;-79
2021/05/31 11:10:34;;;;;;;1.90;1.80;;;21.90;36.30;;;;;;5134941;27;20957;-80
2021/05/31 11:13:16;;;;;;;1.53;1.43;;;21.80;36.60;;;;;;5135134;27;20431;-79
2021/05/31 11:15:42;;;;;;;1.57;1.47;;;21.70;36.50;;;;;;5135052;27;20423;-80
2021/05/31 11:18:09;;;;;;;1.70;1.60;;;21.60;37.70;;;;;;5135080;27;20459;-79
2021/05/31 11:20:40;;;;;;;2.20;1.77;;;21.60;36.10;;;;;;5134614;27;20446;-80
2021/05/31 11:23:07;;;;;;;2.03;1.83;;;21.50;36.60;;;;;;5134903;27;20430;-80
2021/05/31 11:25:33;;;;;;;1.90;1.80;;;21.40;36.60;;;;;;5134780;27;20441;-79
2021/05/31 11:28:01;;;;;;;3.90;1.70;;;21.30;36.70;;;;;;5134503;27;21010;-80
2021/05/31 11:30:30;;;;;;;1.90;1.80;;;21.10;37.80;;;;;;5134658;27;20466;-80
2021/05/31 11:32:59;;;;;;;2.20;2.00;;;21.00;37.90;;;;;;5134533;27;20470;-80
2021/05/31 11:35:28;;;;;;;2.17;2.00;;;20.90;38.40;;;;;;5134333;27;20790;-81
2021/05/31 11:37:55;;;;;;;1.60;1.50;;;21.10;39.00;;;;;;5134551;27;20426;-81
2021/05/31 11:40:23;;;;;;;2.20;2.10;;;21.10;38.50;;;;;;5134144;27;20996;-80
2021/05/31 11:42:54;;;;;;;1.87;1.77;;;21.00;38.70;;;;;;5134073;27;20902;-80
2021/05/31 11:45:22;;;;;;;1.90;1.70;;;20.90;39.10;;;;;;5134357;27;20423;-80
2021/05/31 11:47:56;;;;;;;3.70;2.07;;;20.90;38.20;;;;;;5134501;27;20456;-80
2021/05/31 11:50:23;;;;;;;2.27;2.07;;;20.90;39.30;;;;;;5134193;27;20470;-80
2021/05/31 11:52:50;;;;;;;1.40;1.30;;;20.90;39.30;;;;;;5134045;27;20960;-80
2021/05/31 11:55:19;;;;;;;2.80;1.77;;;21.00;39.50;;;;;;5134423;27;20426;-80
2021/05/31 11:57:46;;;;;;;2.00;1.90;;;21.10;38.50;;;;;;5133948;27;20906;-80
2021/05/31 12:00:18;;;;;;;1.77;1.67;;;21.00;36.60;;;;;;5133902;27;20977;-80
2021/05/31 12:02:45;;;;;;;1.97;1.87;;;20.90;36.50;;;;;;5138054;27;20862;-81
2021/05/31 12:05:14;;;;;;;2.00;1.90;;;20.80;36.50;;;;;;5138186;27;20436;-82
2021/05/31 12:07:45;;;;;;;2.13;1.93;;;20.80;36.70;;;;;;5139471;27;20433;-82
2021/05/31 12:10:13;;;;;;;2.60;1.90;;;20.80;37.90;;;;;;5138269;27;20477;-82
2021/05/31 12:12:40;;;;;;;2.27;1.97;;;20.80;38.80;;;;;;5138231;27;20503;-81
2021/05/31 12:15:12;;;;;;;1.87;1.73;;;21.00;39.30;;;;;;5138213;27;20434;-81
2021/05/31 12:17:39;;;;;;;1.90;1.80;;;21.00;39.70;;;;;;5138148;27;20474;-82
2021/05/31 12:20:07;;;;;;;1.53;1.43;;;20.90;36.90;;;;;;5138021;27;20509;-81
2021/05/31 12:22:38;;;;;;;2.27;2.00;;;20.70;38.70;;;;;;5138061;27;20441;-80
2021/05/31 12:25:07;;;;;;;2.20;1.67;;;20.60;37.80;;;;;;5138038;27;20608;-81
2021/05/31 12:27:35;;;;;;;1.63;1.53;;;20.50;38.00;;;;;;5137576;27;20478;-81
2021/05/31 12:30:03;;;;;;;1.60;1.50;;;20.50;38.70;;;;;;5137820;27;20453;-80
2021/05/31 12:32:29;;;;;;;2.20;2.00;;;20.50;39.10;;;;;;5137714;27;20478;-82
2021/05/31 12:34:56;;;;;;;2.13;2.03;;;20.30;39.00;;;;;;5137796;27;20473;-81
2021/05/31 12:37:24;;;;;;;1.70;1.60;;;20.20;39.60;;;;;;5137507;27;20561;-81
2021/05/31 12:39:53;;;;;;;1.90;1.80;;;20.20;39.70;;;;;;5137390;27;20453;-81
2021/05/31 12:42:22;;;;;;;1.50;1.40;;;20.00;38.60;;;;;;5137405;27;20449;-80
2021/05/31 12:44:49;;;;;;;2.20;1.63;;;20.00;39.30;;;;;;5137548;27;20453;-81
2021/05/31 12:47:17;;;;;;;2.20;2.00;;;19.90;38.90;;;;;;5137576;27;20450;-81
2021/05/31 12:49:45;;;;;;;1.73;1.50;;;19.90;39.70;;;;;;5137519;27;20449;-81
2021/05/31 12:52:12;;;;;;;1.60;1.50;;;19.90;36.00;;;;;;5137179;27;21024;-81
2021/05/31 12:54:39;;;;;;;1.93;1.73;;;19.90;37.00;;;;;;5137473;27;20442;-81
2021/05/31 12:57:12;;;;;;;2.17;2.07;;;19.80;38.20;;;;;;5137070;27;20999;-82
2021/05/31 12:59:40;;;;;;;1.67;1.57;;;19.70;40.50;;;;;;5137194;27;20411;-84